createdAt,value
2022-10-17T00:02:58.385Z,100747.56
2022-10-17T00:06:05.985Z,100752.19
2022-10-17T00:09:09.651Z,100754.75
2022-10-17T00:12:13.934Z,100758.31
2022-10-17T00:15:17.998Z,100766.38
2022-10-17T00:18:21.161Z,100768.16
2022-10-17T00:21:25.449Z,100743.75
2022-10-17T00:24:28.154Z,100766.16
2022-10-17T00:27:32.577Z,100768.53
2022-10-17T00:30:35.552Z,100767.50
2022-10-17T00:33:39.217Z,100763.19
2022-10-17T00:36:41.986Z,100759.53
2022-10-17T00:39:45.014Z,100763.66
2022-10-17T00:42:51.235Z,100773.75
2022-10-17T00:45:54.311Z,100780.97
2022-10-17T00:48:59.756Z,100778.84
2022-10-17T00:52:05.855Z,100783.91
2022-10-17T00:55:15.128Z,100786.00
2022-10-17T00:58:20.118Z,100787.03
2022-10-17T01:01:23.019Z,100788.72
2022-10-17T01:04:25.811Z,100783.69
2022-10-17T01:07:33.171Z,100788.72
2022-10-17T01:10:50.540Z,100795.06
2022-10-17T01:13:59.692Z,100795.88
2022-10-17T01:17:12.853Z,100809.38
2022-10-17T01:20:48.959Z,100807.31
2022-10-17T01:24:25.817Z,100796.41
2022-10-17T01:27:50.338Z,100803.84
2022-10-17T01:31:00.671Z,100808.19
2022-10-17T01:34:09.946Z,100813.09
2022-10-17T01:37:19.369Z,100820.56
2022-10-17T01:40:28.307Z,100813.41
2022-10-17T01:43:39.010Z,100792.03
2022-10-17T01:46:48.418Z,100809.72
2022-10-17T01:49:55.137Z,100807.81
2022-10-17T01:53:03.719Z,100799.72
2022-10-17T01:56:09.272Z,100795.44
2022-10-17T01:59:15.642Z,100794.50
2022-10-17T02:02:22.338Z,100793.03
2022-10-17T02:05:28.849Z,100796.91
2022-10-17T02:08:43.218Z,100788.00
2022-10-17T02:11:55.202Z,100785.59
2022-10-17T02:15:11.194Z,100791.81
2022-10-17T02:18:31.494Z,100781.72
2022-10-17T02:21:46.236Z,100792.59
2022-10-17T02:24:53.760Z,100801.56
2022-10-17T02:28:03.324Z,100797.94
2022-10-17T02:31:13.492Z,100809.19
2022-10-17T02:34:21.261Z,100777.56
2022-10-17T02:37:29.162Z,100793.25
2022-10-17T02:40:33.273Z,100801.25
2022-10-17T02:43:38.412Z,100816.81
2022-10-17T02:46:43.835Z,100811.91
2022-10-17T02:49:52.471Z,100822.59
2022-10-17T02:53:00.560Z,100823.94
2022-10-17T02:56:10.975Z,100745.84
2022-10-17T02:59:16.831Z,100822.56
2022-10-17T03:02:19.976Z,100828.56
2022-10-17T03:05:27.180Z,100821.34
2022-10-17T03:08:30.000Z,100832.16
2022-10-17T03:11:33.177Z,100832.72
2022-10-17T03:14:36.061Z,100829.31
2022-10-17T03:17:39.298Z,100836.16
2022-10-17T03:20:43.504Z,100834.56
2022-10-17T03:23:46.498Z,100834.97
2022-10-17T03:26:49.243Z,100836.81
2022-10-17T03:29:52.351Z,100835.03
2022-10-17T03:32:55.318Z,100837.50
2022-10-17T03:35:59.403Z,100839.41
2022-10-17T03:39:02.128Z,100849.28
2022-10-17T03:42:05.374Z,100854.03
2022-10-17T03:45:08.793Z,100848.97
2022-10-17T03:48:11.870Z,100841.94
2022-10-17T03:51:16.798Z,100840.41
2022-10-17T03:54:19.567Z,100851.47
2022-10-17T03:57:22.514Z,100844.88
2022-10-17T04:00:25.302Z,100848.09
2022-10-17T04:03:28.054Z,100851.03
2022-10-17T04:06:32.286Z,100849.06
2022-10-17T04:09:35.390Z,100852.63
2022-10-17T04:12:38.446Z,100857.50
2022-10-17T04:15:41.142Z,100857.00
2022-10-17T04:18:44.941Z,100861.69
2022-10-17T04:21:49.246Z,100863.34
2022-10-17T04:24:52.272Z,100869.97
2022-10-17T04:27:55.258Z,100876.22
2022-10-17T04:30:58.880Z,100879.59
2022-10-17T04:34:02.162Z,100876.75
2022-10-17T04:37:06.468Z,100871.13
2022-10-17T04:40:10.547Z,100879.59
2022-10-17T04:43:13.486Z,100883.06
2022-10-17T04:46:16.628Z,100863.25
2022-10-17T04:49:19.566Z,100894.91
2022-10-17T04:52:25.398Z,100892.81
2022-10-17T04:55:28.175Z,100894.53
2022-10-17T04:58:31.166Z,100890.34
2022-10-17T05:01:34.108Z,100893.00
2022-10-17T05:04:37.000Z,100898.13
2022-10-17T05:07:42.466Z,100892.41
2022-10-17T05:10:47.367Z,100893.88
2022-10-17T05:13:54.583Z,100884.91
2022-10-17T05:16:57.422Z,100886.97
2022-10-17T05:20:00.202Z,100881.94
2022-10-17T05:23:05.063Z,100885.72
2022-10-17T05:26:07.841Z,100886.28
2022-10-17T05:29:11.208Z,100885.47
2022-10-17T05:32:14.001Z,100868.50
2022-10-17T05:35:17.095Z,100893.44
2022-10-17T05:38:21.198Z,100905.50
2022-10-17T05:41:24.319Z,100910.31
2022-10-17T05:44:27.361Z,100896.28
2022-10-17T05:47:30.285Z,100908.28
2022-10-17T05:50:33.680Z,100908.34
2022-10-17T05:53:40.410Z,100910.94
2022-10-17T05:56:43.368Z,100918.56
2022-10-17T05:59:46.075Z,100911.22
2022-10-17T06:02:49.544Z,100902.97
2022-10-17T06:05:52.457Z,100919.81
2022-10-17T06:08:56.802Z,100927.69
2022-10-17T06:11:59.593Z,100923.75
2022-10-17T06:15:02.620Z,100924.69
2022-10-17T06:18:05.881Z,100931.81
2022-10-17T06:21:11.130Z,100943.06
2022-10-17T06:24:15.546Z,100945.13
2022-10-17T06:27:18.275Z,100944.31
2022-10-17T06:30:21.014Z,100953.81
2022-10-17T06:33:23.990Z,100954.63
2022-10-17T06:36:27.123Z,100966.22
2022-10-17T06:39:34.204Z,100954.34
2022-10-17T06:42:36.944Z,100951.97
2022-10-17T06:45:40.631Z,100945.06
2022-10-17T06:48:43.666Z,100955.28
2022-10-17T06:51:46.850Z,100944.78
2022-10-17T06:54:52.027Z,100946.97
2022-10-17T06:57:58.136Z,100960.94
2022-10-17T07:01:02.005Z,100949.50
2022-10-17T07:04:05.289Z,100944.69
2022-10-17T07:07:08.229Z,100947.41
2022-10-17T07:10:12.782Z,100960.13
2022-10-17T07:13:16.070Z,100958.69
2022-10-17T07:16:18.864Z,100955.06
2022-10-17T07:19:21.907Z,100964.94
2022-10-17T07:22:24.943Z,100965.56
2022-10-17T07:25:29.832Z,100966.56
2022-10-17T07:28:32.782Z,100966.13
2022-10-17T07:31:35.609Z,100956.72
2022-10-17T07:34:38.361Z,100967.44
2022-10-17T07:37:41.854Z,100971.00
2022-10-17T07:40:46.233Z,100975.84
2022-10-17T07:43:49.075Z,100961.88
2022-10-17T07:46:51.999Z,100972.34
2022-10-17T07:49:54.732Z,100970.13
2022-10-17T07:52:57.767Z,100967.47
2022-10-17T07:56:05.607Z,100976.06
2022-10-17T07:59:09.549Z,100973.00
2022-10-17T08:02:21.887Z,100978.16
2022-10-17T08:05:24.610Z,100976.69
2022-10-17T08:08:28.277Z,100968.16
2022-10-17T08:11:32.893Z,100974.03
2022-10-17T08:14:35.799Z,100973.09
2022-10-17T08:17:39.484Z,100980.50
2022-10-17T08:20:42.562Z,100983.56
2022-10-17T08:23:45.592Z,100980.50
2022-10-17T08:26:51.880Z,100983.59
2022-10-17T08:29:55.122Z,100985.19
2022-10-17T08:32:58.058Z,100985.03
2022-10-17T08:36:01.984Z,100988.13
2022-10-17T08:39:05.487Z,100980.91
2022-10-17T08:42:28.341Z,100985.41
2022-10-17T08:45:34.983Z,100985.50
2022-10-17T08:48:44.087Z,100974.41
2022-10-17T08:51:53.958Z,100980.66
2022-10-17T08:54:57.064Z,100979.09
2022-10-17T08:58:01.964Z,100982.78
2022-10-17T09:01:13.170Z,100975.09
2022-10-17T09:04:52.073Z,100968.69
2022-10-17T09:08:06.922Z,100974.63
2022-10-17T09:11:22.101Z,100952.91
2022-10-17T09:14:44.520Z,100964.75
2022-10-17T09:17:53.922Z,100957.19
2022-10-17T09:21:00.404Z,100957.72
2022-10-17T09:24:15.790Z,100958.75
2022-10-17T09:27:24.411Z,100944.97
2022-10-17T09:30:51.277Z,100951.25
2022-10-17T09:33:57.114Z,100954.72
2022-10-17T09:37:01.920Z,100959.03
2022-10-17T09:40:08.945Z,100956.41
2022-10-17T09:43:14.669Z,100954.19
2022-10-17T09:46:25.941Z,100943.50
2022-10-17T09:49:33.585Z,100950.09
2022-10-17T09:52:40.714Z,100943.28
2022-10-17T09:55:47.815Z,100924.06
2022-10-17T09:58:52.869Z,100945.50
2022-10-17T10:02:09.597Z,100950.41
2022-10-17T10:05:17.720Z,100948.81
2022-10-17T10:08:21.159Z,100956.44
2022-10-17T10:11:27.442Z,100951.28
2022-10-17T10:14:33.591Z,100951.50
2022-10-17T10:17:41.666Z,100954.25
2022-10-17T10:20:47.285Z,100959.53
2022-10-17T10:24:06.762Z,100949.94
2022-10-17T10:27:15.877Z,100947.16
2022-10-17T10:30:20.386Z,100954.78
2022-10-17T10:33:28.537Z,100954.44
2022-10-17T10:36:55.203Z,100958.22
2022-10-17T10:39:59.657Z,100952.44
2022-10-17T10:43:05.548Z,100963.34
2022-10-17T10:46:19.426Z,100958.44
2022-10-17T10:49:34.163Z,100950.00
2022-10-17T10:52:44.847Z,100952.06
2022-10-17T10:55:51.491Z,100945.38
2022-10-17T10:58:59.651Z,100939.59
2022-10-17T11:02:11.788Z,100934.88
2022-10-17T11:05:23.206Z,100937.66
2022-10-17T11:08:32.711Z,100928.69
2022-10-17T11:11:40.574Z,100924.63
2022-10-17T11:14:48.044Z,100913.13
2022-10-17T11:17:58.536Z,100921.69
2022-10-17T11:21:11.525Z,100912.66
2022-10-17T11:24:22.786Z,100917.94
2022-10-17T11:27:26.642Z,100913.97
2022-10-17T11:30:50.367Z,100912.72
2022-10-17T11:33:58.620Z,100908.78
2022-10-17T11:37:11.002Z,100914.59
2022-10-17T11:40:23.592Z,100915.44
2022-10-17T11:43:33.823Z,100915.34
2022-10-17T11:46:38.817Z,100910.38
2022-10-17T11:49:49.943Z,100929.28
2022-10-17T11:53:02.337Z,100916.84
2022-10-17T11:56:05.719Z,100924.88
2022-10-17T11:59:30.892Z,100928.34
2022-10-17T12:02:43.456Z,100928.31
2022-10-17T12:05:54.201Z,100925.00
2022-10-17T12:09:06.171Z,100939.66
2022-10-17T12:12:09.507Z,100931.41
2022-10-17T12:15:32.191Z,100931.38
2022-10-17T12:18:34.986Z,100927.16
2022-10-17T12:21:56.331Z,100924.09
2022-10-17T12:25:02.846Z,100926.50
2022-10-17T12:28:14.495Z,100922.72
2022-10-17T12:31:29.669Z,100925.22
2022-10-17T12:34:35.452Z,100928.25
2022-10-17T12:38:01.995Z,100927.28
2022-10-17T12:41:07.757Z,100915.28
2022-10-17T12:44:38.021Z,100909.94
2022-10-17T12:47:41.017Z,100898.84
2022-10-17T12:51:34.031Z,100898.09
2022-10-17T12:54:28.146Z,100903.63
2022-10-17T12:57:39.589Z,100885.03
2022-10-17T13:00:59.458Z,100897.72
2022-10-17T13:04:11.675Z,100898.06
2022-10-17T13:07:19.852Z,100898.56
2022-10-17T13:13:39.188Z,100901.56
2022-10-17T13:16:59.352Z,100895.66
2022-10-17T13:20:02.778Z,100898.03
2022-10-17T13:23:05.953Z,100885.75
2022-10-17T13:26:15.410Z,100890.25
2022-10-17T13:29:21.880Z,100893.75
2022-10-17T13:32:25.355Z,100898.16
2022-10-17T13:35:55.494Z,100862.94
2022-10-17T13:38:54.049Z,100892.75
2022-10-17T13:41:59.069Z,100905.56
2022-10-17T13:45:03.776Z,100905.78
2022-10-17T13:48:10.089Z,100915.09
2022-10-17T13:51:14.045Z,100916.81
2022-10-17T13:54:36.508Z,100915.94
2022-10-17T13:57:39.213Z,100916.97
2022-10-17T14:00:43.752Z,100882.75
2022-10-17T14:03:48.979Z,100924.09
2022-10-17T14:06:52.712Z,100918.56
2022-10-17T14:09:55.627Z,100922.50
2022-10-17T14:12:59.100Z,100921.84
2022-10-17T14:16:05.027Z,100927.59
2022-10-17T14:19:17.544Z,100936.91
2022-10-17T14:22:27.780Z,100929.25
2022-10-17T14:25:32.387Z,100938.69
2022-10-17T14:28:36.057Z,100939.81
2022-10-17T14:31:40.274Z,100937.44
2022-10-17T14:34:43.062Z,100931.41
2022-10-17T14:37:48.708Z,100942.72
2022-10-17T14:40:57.531Z,100941.19
2022-10-17T14:44:09.759Z,100939.06
2022-10-17T14:47:42.079Z,100945.97
2022-10-17T14:51:08.669Z,100943.81
2022-10-17T14:54:29.138Z,100932.38
2022-10-17T14:57:44.487Z,100957.22
2022-10-17T15:00:47.157Z,100955.47
2022-10-17T15:03:51.488Z,100956.47
2022-10-17T15:06:55.893Z,100959.47
2022-10-17T15:09:58.750Z,100965.31
2022-10-17T15:13:26.572Z,100979.34
2022-10-17T15:16:26.906Z,100979.28
2022-10-17T15:19:30.987Z,100989.06
2022-10-17T15:22:36.664Z,100990.66
2022-10-17T15:25:40.559Z,101001.53
2022-10-17T15:28:44.032Z,100991.84
2022-10-17T15:31:46.890Z,100994.44
2022-10-17T15:34:51.106Z,101006.50
2022-10-17T15:37:54.069Z,101007.66
2022-10-17T15:40:56.875Z,101010.56
2022-10-17T15:44:01.072Z,101006.22
2022-10-17T15:47:04.043Z,101009.34
2022-10-17T15:50:13.061Z,101014.75
2022-10-17T15:53:15.867Z,101014.88
2022-10-17T15:56:23.228Z,101026.72
2022-10-17T15:59:31.465Z,101031.34
2022-10-17T16:02:34.318Z,101038.38
2022-10-17T16:05:38.418Z,101046.59
2022-10-17T16:08:41.578Z,101045.47
2022-10-17T16:11:45.210Z,101048.66
2022-10-17T16:14:47.941Z,101057.72
2022-10-17T16:17:51.263Z,101063.09
2022-10-17T16:20:55.532Z,101058.38
2022-10-17T16:23:58.722Z,101067.25
2022-10-17T16:27:01.484Z,101065.22
2022-10-17T16:30:05.391Z,101064.00
2022-10-17T16:33:08.092Z,101068.31
2022-10-17T16:36:12.211Z,101068.72
2022-10-17T16:39:14.992Z,101077.75
2022-10-17T16:42:18.118Z,101079.22
2022-10-17T16:45:22.593Z,101084.31
2022-10-17T16:48:29.617Z,101084.19
2022-10-17T16:51:35.914Z,101089.28
2022-10-17T16:54:38.693Z,101087.22
2022-10-17T17:00:47.757Z,101105.91
2022-10-17T17:03:51.538Z,101104.72
2022-10-17T17:06:55.703Z,101111.63
2022-10-17T17:09:58.490Z,101115.72
2022-10-17T17:13:02.090Z,101119.72
2022-10-17T17:16:07.502Z,101121.09
2022-10-17T17:19:14.765Z,101120.47
2022-10-17T17:22:18.853Z,101129.22
2022-10-17T17:25:22.968Z,101127.66
2022-10-17T17:28:28.577Z,101125.88
2022-10-17T17:31:33.888Z,101130.13
2022-10-17T17:34:37.499Z,101130.56
2022-10-17T17:37:41.832Z,101129.06
2022-10-17T17:40:50.750Z,101132.94
2022-10-17T17:43:54.787Z,101138.41
2022-10-17T17:46:57.691Z,101143.38
2022-10-17T17:50:00.700Z,101140.91
2022-10-17T17:53:05.434Z,101147.72
2022-10-17T17:56:10.495Z,101152.47
2022-10-17T17:59:14.470Z,101157.56
2022-10-17T18:02:17.747Z,101163.13
2022-10-17T18:05:21.258Z,101172.66
2022-10-17T18:08:25.527Z,101164.72
2022-10-17T18:11:29.317Z,101165.69
2022-10-17T18:14:32.299Z,101160.28
2022-10-17T18:17:35.476Z,101161.34
2022-10-17T18:20:41.672Z,101166.09
2022-10-17T18:23:47.800Z,101169.28
2022-10-17T18:26:51.094Z,101180.56
2022-10-17T18:29:53.926Z,101181.59
2022-10-17T18:32:56.769Z,101190.03
2022-10-17T18:36:06.991Z,101188.44
2022-10-17T18:39:11.413Z,101188.59
2022-10-17T18:42:14.263Z,101200.47
2022-10-17T18:45:17.482Z,101198.78
2022-10-17T18:48:20.225Z,101197.91
2022-10-17T18:51:25.239Z,101194.38
2022-10-17T18:54:32.429Z,101191.72
2022-10-17T18:57:35.554Z,101191.63
2022-10-17T19:00:38.570Z,101194.25
2022-10-17T19:03:41.318Z,101192.22
2022-10-17T19:06:44.365Z,101188.44
2022-10-17T19:09:49.136Z,101193.03
2022-10-17T19:12:51.908Z,101185.78
2022-10-17T19:15:54.641Z,101194.25
2022-10-17T19:19:00.943Z,101188.00
2022-10-17T19:22:04.429Z,101193.00
2022-10-17T19:25:09.405Z,101192.59
2022-10-17T19:28:12.404Z,101209.47
2022-10-17T19:31:17.944Z,101204.34
2022-10-17T19:34:21.510Z,101201.78
2022-10-17T19:37:24.852Z,101204.53
2022-10-17T19:40:29.101Z,101209.72
2022-10-17T19:43:31.875Z,101213.09
2022-10-17T19:46:35.709Z,101203.59
2022-10-17T19:49:38.850Z,101200.66
2022-10-17T19:52:41.941Z,101200.50
2022-10-17T19:55:46.779Z,101200.31
2022-10-17T19:58:51.491Z,101193.63
2022-10-17T20:01:54.472Z,101200.50
2022-10-17T20:05:17.190Z,101205.56
2022-10-17T20:08:20.708Z,101206.94
2022-10-17T20:11:27.099Z,101209.31
2022-10-17T20:14:29.851Z,101202.56
2022-10-17T20:17:35.887Z,101201.69
2022-10-17T20:20:38.943Z,101202.06
2022-10-17T20:23:43.282Z,101207.91
2022-10-17T20:26:47.816Z,101191.28
2022-10-17T20:29:50.585Z,101205.59
2022-10-17T20:32:55.443Z,101203.75
2022-10-17T20:35:59.582Z,101206.47
2022-10-17T20:39:03.560Z,101210.00
2022-10-17T20:42:09.468Z,101200.13
2022-10-17T20:45:13.239Z,101210.25
2022-10-17T20:48:17.463Z,101205.66
2022-10-17T20:51:20.836Z,101194.97
2022-10-17T20:54:23.832Z,101214.72
2022-10-17T20:57:28.101Z,101217.47
2022-10-17T21:00:31.531Z,101213.00
2022-10-17T21:03:37.098Z,101228.31
2022-10-17T21:06:41.636Z,101228.09
2022-10-17T21:09:45.478Z,101229.75
2022-10-17T21:12:53.885Z,101221.50
2022-10-17T21:15:57.644Z,101221.34
2022-10-17T21:19:00.967Z,101221.03
2022-10-17T21:22:04.000Z,101225.53
2022-10-17T21:25:07.735Z,101223.84
2022-10-17T21:28:11.906Z,101222.06
2022-10-17T21:31:17.872Z,101217.75
2022-10-17T21:34:22.318Z,101216.03
2022-10-17T21:37:25.045Z,101216.03
2022-10-17T21:40:28.105Z,101210.56
2022-10-17T21:43:33.462Z,101212.34
2022-10-17T21:46:36.310Z,101218.69
2022-10-17T21:49:39.065Z,101214.13
2022-10-17T21:52:41.889Z,101220.63
2022-10-17T21:55:44.668Z,101216.09
2022-10-17T21:58:49.528Z,101217.00
2022-10-17T22:01:52.361Z,101219.91
2022-10-17T22:04:55.189Z,101211.22
2022-10-17T22:07:58.908Z,101215.78
2022-10-17T22:11:06.315Z,101218.72
2022-10-17T22:14:13.902Z,101221.63
2022-10-17T22:17:16.631Z,101217.28
2022-10-17T22:20:19.388Z,101220.16
2022-10-17T22:23:22.298Z,101211.25
2022-10-17T22:26:25.580Z,101222.22
2022-10-17T22:29:29.740Z,101216.13
2022-10-17T22:32:32.585Z,101194.84
2022-10-17T22:35:35.817Z,101201.94
2022-10-17T22:38:38.587Z,101206.66
2022-10-17T22:41:41.747Z,101214.19
2022-10-17T22:44:46.860Z,101206.19
2022-10-17T22:47:49.648Z,101193.19
2022-10-17T22:50:53.575Z,101213.16
2022-10-17T22:53:56.310Z,101212.41
2022-10-17T22:56:59.384Z,101215.34
2022-10-17T23:00:03.804Z,101212.69
2022-10-17T23:03:06.802Z,101195.88
2022-10-17T23:06:10.493Z,101206.66
2022-10-17T23:09:13.665Z,101202.38
2022-10-17T23:12:16.636Z,101194.53
2022-10-17T23:15:20.745Z,101196.13
2022-10-17T23:18:24.872Z,101195.94
2022-10-17T23:21:27.616Z,101190.59
2022-10-17T23:24:31.057Z,101186.03
2022-10-17T23:27:35.778Z,101178.94
2022-10-17T23:30:40.349Z,101183.97
2022-10-17T23:33:45.254Z,101179.47
2022-10-17T23:36:48.149Z,101174.97
2022-10-17T23:39:50.880Z,101171.53
2022-10-17T23:42:53.717Z,101146.38
2022-10-17T23:45:57.817Z,101161.03
2022-10-17T23:49:06.303Z,101165.75
2022-10-17T23:52:09.369Z,101157.91
2022-10-17T23:55:12.327Z,101175.66
2022-10-17T23:58:15.115Z,101170.09
